Date,TemperatureHighF,TemperatureAvgF,TemperatureLowF,DewpointHighF,DewpointAvgF,DewpointLowF,HumidityHigh,HumidityAvg,HumidityLow,PressureMaxIn,PressureMinIn,WindSpeedMaxMPH,WindSpeedAvgMPH,GustSpeedMaxMPH,PrecipitationSumIn
2013-4-1,49,36,31,42,24,14,89,61,38,30.08,29.64,22,3,22,0.00
2013-4-2,38,32,28,24,16,9,70,52,37,30.22,30.08,20,3,20,0.00
2013-4-3,36,32,26,25,16,11,70,51,39,30.46,30.22,24,2,24,0.00
2013-4-4,56,37,25,21,14,6,67,42,14,30.41,29.96,10,1,15,0.00
2013-4-5,43,39,30,33,24,14,81,56,31,30.22,29.93,21,4,21,0.00
2013-4-6,56,42,25,20,15,10,76,38,16,30.29,29.90,21,2,24,0.00
2013-4-7,69,56,44,44,34,13,71,46,19,30.02,29.73,28,4,28,0.00
2013-4-8,72,57,38,53,43,33,83,62,42,30.04,29.78,27,4,27,0.00
2013-4-9,79,60,45,56,47,41,88,64,42,30.10,29.81,18,2,18,0.00
2013-4-10,65,49,41,60,46,40,97,88,65,29.95,29.76,36,2,36,0.37
2013-4-11,48,43,38,46,41,37,97,95,89,29.94,29.59,20,4,20,0.29
2013-4-12,53,43,39,53,40,32,99,89,68,29.84,29.44,24,3,24,0.35
2013-4-13,44,41,37,38,34,29,92,77,64,29.97,29.83,20,4,20,0.04
2013-4-14,54,48,34,37,34,30,86,61,48,30.14,29.95,18,2,18,0.00
2013-4-15,72,59,52,51,43,35,68,55,42,30.02,29.92,21,4,26,0.00
2013-4-16,67,55,48,59,50,46,96,84,67,30.18,29.90,21,2,21,0.11
2013-4-17,59,52,45,47,40,33,98,67,44,30.30,30.04,20,4,21,0.00
2013-4-18,85,70,49,62,56,39,85,65,32,30.06,29.63,32,4,32,0.00
2013-4-19,72,51,40,60,40,28,95,68,50,29.81,29.33,33,5,33,0.27
2013-4-20,42,37,32,32,27,23,92,67,52,30.43,29.81,24,4,26,0.04
2013-4-21,44,38,30,31,26,23,85,63,46,30.64,30.43,28,4,28,0.00
2013-4-22,63,52,36,39,31,24,69,46,32,30.49,30.20,21,3,21,0.00
2013-4-23,55,51,48,30,27,25,50,40,33,30.21,30.16,24,6,24,0.00
2013-4-24,63,47,36,53,43,35,96,87,53,30.14,29.69,4,2,18,0.48
2013-4-25,53,42,32,41,34,29,89,74,43,30.35,30.14,6,2,22,0.04
2013-4-26,53,47,31,36,31,27,94,55,38,30.49,30.35,14,2,14,0.00
2013-4-27,66,54,43,43,36,30,69,51,27,30.39,30.09,8,2,15,0.00
2013-4-28,59,55,50,47,40,36,71,56,45,30.09,29.98,15,2,15,0.00
2013-4-29,64,59,56,57,53,50,97,83,60,29.96,29.84,4,1,20,0.04
2013-4-30,76,66,53,57,53,51,97,66,44,30.09,29.96,18,2,18,0.00